createdAt,value
2023-05-20T00:04:44.652Z,1004.40
2023-05-20T00:09:48.775Z,1004.42
2023-05-20T00:14:53.932Z,1004.42
2023-05-20T00:19:57.104Z,1004.37
2023-05-20T00:25:01.267Z,1004.35
2023-05-20T00:30:05.465Z,1004.28
2023-05-20T00:45:17.923Z,1004.14
2023-05-20T00:55:26.229Z,1004.10
2023-05-20T01:00:28.535Z,1004.10
2023-05-20T01:05:30.830Z,1003.97
2023-05-20T01:10:41.956Z,1003.88
2023-05-20T01:15:53.190Z,1003.83
2023-05-20T01:21:04.313Z,1003.88
2023-05-20T01:26:15.461Z,1003.85
2023-05-20T01:31:26.651Z,1003.87
2023-05-20T01:36:28.925Z,1003.90
2023-05-20T01:41:33.092Z,1003.85
2023-05-20T01:46:37.268Z,1003.76
2023-05-20T01:51:41.400Z,1003.59
2023-05-20T01:56:45.546Z,1003.60
2023-05-20T02:01:47.841Z,1003.62
2023-05-20T02:06:52.007Z,1003.52
2023-05-20T02:11:56.133Z,1003.54
2023-05-20T02:17:00.321Z,1003.51
2023-05-20T02:22:04.460Z,1003.51
2023-05-20T02:27:08.662Z,1003.53
2023-05-20T02:32:12.799Z,1003.66
2023-05-20T02:37:16.970Z,1003.74
2023-05-20T02:42:21.146Z,1003.75
2023-05-20T02:47:25.316Z,1003.77
2023-05-20T02:52:29.438Z,1003.79
2023-05-20T02:57:33.620Z,1003.78
2023-05-20T03:02:37.807Z,1003.74
2023-05-20T03:07:41.951Z,1003.77
2023-05-20T03:12:46.091Z,1003.89
2023-05-20T03:17:48.379Z,1003.85
2023-05-20T03:22:52.526Z,1003.81
2023-05-20T03:27:56.669Z,1003.88
2023-05-20T03:33:00.880Z,1003.78
2023-05-20T03:38:05.006Z,1003.87
2023-05-20T03:43:09.160Z,1003.88
2023-05-20T03:48:13.335Z,1003.94
2023-05-20T03:53:17.535Z,1003.98
2023-05-20T03:58:21.654Z,1003.90
2023-05-20T04:03:25.963Z,1003.80
2023-05-20T04:08:29.961Z,1003.80
2023-05-20T04:13:34.135Z,1003.77
2023-05-20T04:18:38.280Z,1003.84
2023-05-20T04:23:42.464Z,1003.81
2023-05-20T04:28:46.619Z,1003.80
2023-05-20T04:33:50.783Z,1003.72
2023-05-20T04:38:54.925Z,1003.72
2023-05-20T04:43:59.114Z,1003.72
2023-05-20T04:49:03.258Z,1003.80
2023-05-20T04:54:07.427Z,1003.75
2023-05-20T04:59:09.739Z,1003.71
2023-05-20T05:04:13.916Z,1003.74
2023-05-20T05:09:18.000Z,1003.72
2023-05-20T05:14:22.165Z,1003.59
2023-05-20T05:19:26.383Z,1003.52
2023-05-20T05:24:30.560Z,1003.39
2023-05-20T05:29:35.051Z,1003.22
2023-05-20T05:34:38.856Z,1003.05
2023-05-20T05:39:43.339Z,1002.99
2023-05-20T05:44:49.195Z,1002.78
2023-05-20T05:49:51.318Z,1002.59
2023-05-20T05:54:55.469Z,1002.36
2023-05-20T05:59:59.644Z,1002.14
2023-05-20T06:05:03.798Z,1002.06
2023-05-20T06:10:07.965Z,1001.76
2023-05-20T06:15:12.124Z,1001.78
2023-05-20T06:20:16.301Z,1001.61
2023-05-20T06:25:20.419Z,1001.55
2023-05-20T06:30:24.679Z,1001.36
2023-05-20T06:35:28.763Z,1001.28
2023-05-20T06:40:32.917Z,1001.37
2023-05-20T06:45:37.112Z,1001.58
2023-05-20T06:50:41.267Z,1001.53
2023-05-20T06:55:45.396Z,1001.47
2023-05-20T07:00:49.607Z,1001.36
2023-05-20T07:05:53.765Z,1001.35
2023-05-20T07:10:57.861Z,1001.31
2023-05-20T07:16:02.073Z,1001.28
2023-05-20T07:21:06.207Z,1001.22
2023-05-20T07:26:10.335Z,1000.97
2023-05-20T07:31:14.591Z,1000.92
2023-05-20T07:36:18.684Z,1000.78
2023-05-20T07:41:22.819Z,1000.64
2023-05-20T07:46:27.083Z,1000.60
2023-05-20T07:51:31.140Z,1000.57
2023-05-20T07:56:35.351Z,1000.51
2023-05-20T08:01:39.516Z,1000.37
2023-05-20T08:06:43.650Z,1000.31
2023-05-20T08:11:47.811Z,1000.29
2023-05-20T08:16:54.614Z,1000.23
2023-05-20T08:21:56.176Z,1000.15
2023-05-20T08:27:00.286Z,1000.21
2023-05-20T08:32:04.469Z,1000.18
2023-05-20T08:37:08.582Z,1000.11
2023-05-20T08:42:12.775Z,1000.09
2023-05-20T08:47:16.878Z,1000.02
2023-05-20T08:52:21.117Z,1000.01
2023-05-20T08:57:25.265Z,999.95
2023-05-20T09:02:29.462Z,999.95
2023-05-20T09:07:33.596Z,999.98
2023-05-20T09:12:37.752Z,999.93
2023-05-20T09:17:41.944Z,999.98
2023-05-20T09:22:46.024Z,999.92
2023-05-20T09:27:50.214Z,999.93
2023-05-20T09:32:54.401Z,999.86
2023-05-20T09:37:58.522Z,999.96
2023-05-20T09:43:02.704Z,999.80
2023-05-20T09:48:06.892Z,999.90
2023-05-20T09:53:10.979Z,999.84
2023-05-20T09:58:16.365Z,999.96
2023-05-20T10:03:19.407Z,999.74
2023-05-20T10:08:23.489Z,999.84
2023-05-20T10:13:27.626Z,999.65
2023-05-20T10:18:31.841Z,999.65
2023-05-20T10:23:35.946Z,999.47
2023-05-20T10:28:38.217Z,999.49
2023-05-20T10:33:42.455Z,999.48
2023-05-20T10:38:46.545Z,999.45
2023-05-20T10:43:50.663Z,999.40
2023-05-20T10:48:55.029Z,999.24
2023-05-20T10:53:59.014Z,999.11
2023-05-20T10:59:03.191Z,999.13
2023-05-20T11:04:07.454Z,998.97
2023-05-20T11:09:11.516Z,999.06
2023-05-20T11:14:15.656Z,998.96
2023-05-20T11:19:19.995Z,999.10
2023-05-20T11:24:23.996Z,999.03
2023-05-20T11:29:28.156Z,998.83
2023-05-20T11:34:32.331Z,998.82
2023-05-20T11:39:36.480Z,999.08
2023-05-20T11:44:40.592Z,998.98
2023-05-20T11:49:44.793Z,998.99
2023-05-20T11:54:48.949Z,999.06
2023-05-20T11:59:53.088Z,998.59
2023-05-20T12:04:57.401Z,998.79
2023-05-20T12:10:01.402Z,999.10
2023-05-20T12:15:05.556Z,999.23
2023-05-20T12:20:09.702Z,999.16
2023-05-20T12:25:13.874Z,999.19
2023-05-20T12:30:18.044Z,999.19
2023-05-20T12:35:22.212Z,999.17
2023-05-20T12:40:26.338Z,999.24
2023-05-20T12:45:30.717Z,999.11
2023-05-20T12:50:35.183Z,999.34
2023-05-20T12:55:38.824Z,999.10
2023-05-20T13:00:43.018Z,999.26
2023-05-20T13:05:47.134Z,999.07
2023-05-20T13:10:51.299Z,999.14
2023-05-20T13:15:55.500Z,999.11
2023-05-20T13:20:59.655Z,998.96
2023-05-20T13:26:03.804Z,999.13
2023-05-20T13:31:07.973Z,999.03
2023-05-20T13:36:12.096Z,999.27
2023-05-20T13:41:16.277Z,999.45
2023-05-20T13:46:20.504Z,999.25
2023-05-20T13:51:24.582Z,999.51
2023-05-20T13:56:28.757Z,999.33
2023-05-20T14:01:32.966Z,999.94
2023-05-20T14:06:37.097Z,999.79
2023-05-20T14:11:41.612Z,999.51
2023-05-20T14:16:45.383Z,1000.37
2023-05-20T14:21:49.522Z,1001.17
2023-05-20T14:26:53.738Z,1001.34
2023-05-20T14:31:57.945Z,1001.36
2023-05-20T14:37:02.034Z,1001.25
2023-05-20T14:42:06.211Z,1000.85
2023-05-20T14:47:10.459Z,1001.28
2023-05-20T14:52:14.466Z,1001.14
2023-05-20T14:57:18.667Z,1000.90
2023-05-20T15:02:22.918Z,1001.28
2023-05-20T15:07:26.950Z,1000.97
2023-05-20T15:12:31.129Z,1000.81
2023-05-20T15:17:35.312Z,1000.97
2023-05-20T15:22:39.454Z,1001.13
2023-05-20T15:27:43.608Z,1000.88
2023-05-20T15:32:47.879Z,1000.99
2023-05-20T15:37:51.936Z,1000.55
2023-05-20T15:42:56.112Z,1000.19
2023-05-20T15:48:00.335Z,1000.28
2023-05-20T15:53:04.392Z,1000.32
2023-05-20T15:58:06.715Z,999.92
2023-05-20T16:03:10.909Z,1000.01
2023-05-20T16:08:15.005Z,999.87
2023-05-20T16:13:19.177Z,999.77
2023-05-20T16:18:23.300Z,999.65
2023-05-20T16:23:27.455Z,999.57
2023-05-20T16:28:31.645Z,999.71
2023-05-20T16:33:35.772Z,1000.04
2023-05-20T16:38:39.950Z,999.93
2023-05-20T16:43:44.142Z,999.86
2023-05-20T16:48:48.255Z,999.91
2023-05-20T16:53:52.414Z,999.66
2023-05-20T16:58:56.610Z,999.86
2023-05-20T17:04:00.787Z,999.73
2023-05-20T17:09:04.909Z,999.90
2023-05-20T17:14:09.088Z,1000.20
2023-05-20T17:19:13.274Z,1000.17
2023-05-20T17:24:17.377Z,999.98
2023-05-20T17:29:21.594Z,1000.01
2023-05-20T17:34:25.731Z,999.82
2023-05-20T17:44:34.001Z,999.58
2023-05-20T17:49:38.172Z,999.20
2023-05-20T17:54:42.365Z,999.34
2023-05-20T17:59:46.483Z,999.13
2023-05-20T18:04:50.650Z,999.36
2023-05-20T18:09:54.848Z,999.07
2023-05-20T18:14:58.979Z,998.85
2023-05-20T18:20:03.123Z,998.78
2023-05-20T18:25:07.319Z,998.69
2023-05-20T18:30:11.450Z,998.54
2023-05-20T18:35:15.624Z,998.64
2023-05-20T18:40:19.795Z,998.60
2023-05-20T18:45:23.918Z,998.42
2023-05-20T18:50:28.117Z,998.20
2023-05-20T18:55:32.264Z,997.99
2023-05-20T19:00:34.787Z,997.80
2023-05-20T19:05:39.048Z,997.62
2023-05-20T19:10:42.810Z,997.44
2023-05-20T19:15:46.979Z,997.41
2023-05-20T19:20:51.158Z,997.21
2023-05-20T19:25:55.325Z,997.06
2023-05-20T19:30:59.482Z,996.75
2023-05-20T19:36:03.662Z,996.69
2023-05-20T19:41:12.260Z,996.39
2023-05-20T19:46:12.066Z,996.19
2023-05-20T19:51:16.285Z,996.11
2023-05-20T19:56:20.284Z,996.03
2023-05-20T20:01:24.468Z,995.91
2023-05-20T20:06:28.610Z,995.82
2023-05-20T20:11:32.787Z,995.74
2023-05-20T20:16:36.966Z,995.79
2023-05-20T20:21:41.060Z,995.80
2023-05-20T20:26:45.213Z,995.69
2023-05-20T20:31:49.494Z,995.78
2023-05-20T20:36:53.566Z,995.85
2023-05-20T20:41:57.707Z,995.85
2023-05-20T20:47:01.934Z,995.76
2023-05-20T20:52:06.045Z,995.86
2023-05-20T20:57:10.186Z,995.94
2023-05-20T21:02:14.340Z,996.05
2023-05-20T21:07:18.583Z,996.05
2023-05-20T21:12:22.701Z,996.09
2023-05-20T21:17:26.881Z,996.16
2023-05-20T21:22:31.081Z,996.33
2023-05-20T21:27:35.195Z,996.50
2023-05-20T21:32:39.350Z,996.67
2023-05-20T21:37:43.523Z,996.70
2023-05-20T21:42:47.611Z,996.82
2023-05-20T21:47:51.862Z,996.84
2023-05-20T21:52:55.970Z,996.78
2023-05-20T21:58:00.162Z,996.72
2023-05-20T22:03:04.310Z,996.66
2023-05-20T22:08:08.441Z,996.57
2023-05-20T22:13:12.587Z,996.45
2023-05-20T22:18:16.758Z,996.40
2023-05-20T22:23:20.954Z,996.22
2023-05-20T22:28:25.047Z,996.24
2023-05-20T22:33:29.250Z,996.21
2023-05-20T22:38:33.408Z,996.18
2023-05-20T22:43:37.561Z,996.20
2023-05-20T22:48:41.729Z,996.17
2023-05-20T22:53:45.852Z,996.25
2023-05-20T22:58:50.042Z,996.19
2023-05-20T23:03:54.224Z,996.21
2023-05-20T23:08:58.352Z,996.22
2023-05-20T23:14:02.537Z,996.34
2023-05-20T23:19:06.756Z,996.30
2023-05-20T23:24:10.826Z,996.17
2023-05-20T23:29:15.063Z,996.25
2023-05-20T23:34:19.248Z,996.19
2023-05-20T23:39:23.306Z,996.05
2023-05-20T23:44:27.484Z,995.91
2023-05-20T23:49:31.625Z,995.82
2023-05-20T23:54:35.831Z,995.77
2023-05-20T23:59:39.959Z,995.63
